createdAt,value
2019-05-18T00:00:22.050Z,46.90
2019-05-18T00:02:50.830Z,47.00
2019-05-18T00:05:19.559Z,47.00
2019-05-18T00:07:48.360Z,46.90
2019-05-18T00:10:17.034Z,47.20
2019-05-18T00:12:45.753Z,47.00
2019-05-18T00:15:14.424Z,47.00
2019-05-18T00:17:43.116Z,47.10
2019-05-18T00:20:12.686Z,47.20
2019-05-18T00:22:41.433Z,47.00
2019-05-18T00:25:10.112Z,47.20
2019-05-18T00:27:38.924Z,47.10
2019-05-18T00:30:08.565Z,47.00
2019-05-18T00:32:37.324Z,47.00
2019-05-18T00:35:08.015Z,47.30
2019-05-18T00:37:36.722Z,47.20
2019-05-18T00:40:07.309Z,47.30
2019-05-18T00:42:35.973Z,47.10
2019-05-18T00:45:08.795Z,47.20
2019-05-18T00:47:41.477Z,47.40
2019-05-18T00:50:08.736Z,47.20
2019-05-18T00:52:46.345Z,47.30
2019-05-18T00:55:15.006Z,47.50
2019-05-18T00:57:43.695Z,46.80
2019-05-18T01:00:12.772Z,47.50
2019-05-18T01:02:41.435Z,47.10
2019-05-18T01:05:10.436Z,47.10
2019-05-18T01:07:39.108Z,47.00
2019-05-18T01:10:08.594Z,47.00
2019-05-18T01:12:37.264Z,47.10
2019-05-18T01:15:08.255Z,47.30
2019-05-18T01:17:36.935Z,47.20
2019-05-18T01:20:11.218Z,47.20
2019-05-18T01:22:39.935Z,47.30
2019-05-18T01:25:08.907Z,47.30
2019-05-18T01:27:37.582Z,47.60
2019-05-18T01:30:08.551Z,47.30
2019-05-18T01:32:37.234Z,47.50
2019-05-18T01:35:07.332Z,47.50
2019-05-18T01:37:36.087Z,47.90
2019-05-18T01:40:06.364Z,47.30
2019-05-18T01:42:35.258Z,47.30
2019-05-18T01:45:16.566Z,47.30
2019-05-18T01:47:38.625Z,47.10
2019-05-18T01:50:08.825Z,47.50
2019-05-18T01:52:37.528Z,47.40
2019-05-18T01:55:12.583Z,47.40
2019-05-18T01:57:41.400Z,48.20
2019-05-18T02:00:10.758Z,47.20
2019-05-18T02:02:39.458Z,47.20
2019-05-18T02:05:08.647Z,47.40
2019-05-18T02:07:37.390Z,47.60
2019-05-18T02:10:07.339Z,47.30
2019-05-18T02:12:36.012Z,47.40
2019-05-18T02:15:05.967Z,47.40
2019-05-18T02:17:34.641Z,47.40
2019-05-18T02:20:03.784Z,47.00
2019-05-18T02:22:32.450Z,47.00
2019-05-18T02:25:01.154Z,47.00
2019-05-18T02:27:29.827Z,47.00
2019-05-18T02:29:58.527Z,46.90
2019-05-18T02:32:27.216Z,47.00
2019-05-18T02:34:55.917Z,47.20
2019-05-18T02:37:24.584Z,47.40
2019-05-18T02:39:54.868Z,47.40
2019-05-18T02:42:23.526Z,47.50
2019-05-18T02:44:52.224Z,47.40
2019-05-18T02:47:20.928Z,47.70
2019-05-18T02:49:49.619Z,47.30
2019-05-18T02:52:18.317Z,47.50
2019-05-18T02:54:47.024Z,47.20
2019-05-18T02:57:15.699Z,47.20
2019-05-18T02:59:44.387Z,46.60
2019-05-18T03:02:13.171Z,46.70
2019-05-18T03:04:41.898Z,46.60
2019-05-18T03:07:10.612Z,47.00
2019-05-18T03:09:39.592Z,47.40
2019-05-18T03:12:08.317Z,47.30
2019-05-18T03:14:37.060Z,47.40
2019-05-18T03:17:05.749Z,47.60
2019-05-18T03:19:34.415Z,47.40
2019-05-18T03:22:03.131Z,47.50
2019-05-18T03:24:31.785Z,47.50
2019-05-18T03:27:00.492Z,47.90
2019-05-18T03:29:29.199Z,47.70
2019-05-18T03:31:57.863Z,47.60
2019-05-18T03:34:26.641Z,47.80
2019-05-18T03:36:55.305Z,47.60
2019-05-18T03:39:24.020Z,47.70
2019-05-18T03:41:52.812Z,47.70
2019-05-18T03:44:21.525Z,47.90
2019-05-18T03:46:51.763Z,47.70
2019-05-18T03:49:27.193Z,48.10
2019-05-18T03:51:50.902Z,48.10
2019-05-18T03:54:19.567Z,48.00
2019-05-18T03:56:48.270Z,48.20
2019-05-18T03:59:16.937Z,48.20
2019-05-18T04:01:45.788Z,48.50
2019-05-18T04:04:18.336Z,48.30
2019-05-18T04:06:45.163Z,49.00
2019-05-18T04:09:13.859Z,48.30
2019-05-18T04:11:42.637Z,49.00
2019-05-18T04:14:11.331Z,48.30
2019-05-18T04:16:40.019Z,48.40
2019-05-18T04:19:08.721Z,48.30
2019-05-18T04:21:37.428Z,48.50
2019-05-18T04:24:06.123Z,48.80
2019-05-18T04:26:34.820Z,48.90
2019-05-18T04:29:03.533Z,49.00
2019-05-18T04:31:32.736Z,48.70
2019-05-18T04:34:01.805Z,48.70
2019-05-18T04:36:30.745Z,48.70
2019-05-18T04:38:59.444Z,48.60
2019-05-18T04:41:28.114Z,48.60
2019-05-18T04:43:56.837Z,48.70
2019-05-18T04:46:25.538Z,48.70
2019-05-18T04:48:54.244Z,48.90
2019-05-18T04:54:21.072Z,48.90
2019-05-18T04:56:49.764Z,49.20
2019-05-18T04:59:18.434Z,49.50
2019-05-18T05:01:47.239Z,49.70
2019-05-18T05:04:16.007Z,49.70
2019-05-18T05:06:44.800Z,49.90
2019-05-18T05:09:13.537Z,49.90
2019-05-18T05:11:42.240Z,50.30
2019-05-18T05:14:10.890Z,50.00
2019-05-18T05:16:39.579Z,50.10
2019-05-18T05:19:08.863Z,50.50
2019-05-18T05:21:37.962Z,50.30
2019-05-18T05:24:06.629Z,50.10
2019-05-18T05:26:35.337Z,50.10
2019-05-18T05:29:04.004Z,50.20
2019-05-18T05:31:32.715Z,50.50
2019-05-18T05:34:01.381Z,50.50
2019-05-18T05:36:30.132Z,50.70
2019-05-18T05:38:58.830Z,50.80
2019-05-18T05:41:27.544Z,50.80
2019-05-18T05:43:56.263Z,50.90
2019-05-18T05:46:24.983Z,50.90
2019-05-18T05:48:53.739Z,51.00
2019-05-18T05:51:22.961Z,51.00
2019-05-18T05:53:53.085Z,51.10
2019-05-18T05:56:21.833Z,51.00
2019-05-18T05:58:50.552Z,51.20
2019-05-18T06:01:19.235Z,51.30
2019-05-18T06:03:48.107Z,51.30
2019-05-18T06:06:16.782Z,51.40
2019-05-18T06:08:45.510Z,51.10
2019-05-18T06:11:14.221Z,51.00
2019-05-18T06:13:42.911Z,51.40
2019-05-18T06:16:11.810Z,50.90
2019-05-18T06:18:40.490Z,50.80
2019-05-18T06:21:09.186Z,51.10
2019-05-18T06:23:37.922Z,50.80
2019-05-18T06:26:06.721Z,50.80
2019-05-18T06:28:35.457Z,50.70
2019-05-18T06:31:04.207Z,50.90
2019-05-18T06:33:32.924Z,50.80
2019-05-18T06:36:01.621Z,50.90
2019-05-18T06:38:49.594Z,51.00
2019-05-18T06:41:18.272Z,51.00
2019-05-18T06:43:48.359Z,51.00
2019-05-18T06:46:17.068Z,51.20
2019-05-18T06:48:45.781Z,51.00
2019-05-18T06:51:14.453Z,50.80
2019-05-18T06:53:43.196Z,50.80
2019-05-18T06:56:13.985Z,50.70
2019-05-18T06:58:43.082Z,50.80
2019-05-18T07:01:11.763Z,50.70
2019-05-18T07:03:40.507Z,50.60
2019-05-18T07:06:09.621Z,50.70
2019-05-18T07:08:38.366Z,50.50
2019-05-18T07:11:07.064Z,50.40
2019-05-18T07:13:35.841Z,50.80
2019-05-18T07:16:05.133Z,50.70
2019-05-18T07:18:34.154Z,50.50
2019-05-18T07:21:02.840Z,50.50
2019-05-18T07:23:31.611Z,50.60
2019-05-18T07:26:00.283Z,50.30
2019-05-18T07:28:28.991Z,50.30
2019-05-18T07:30:57.650Z,50.40
2019-05-18T07:33:26.353Z,50.30
2019-05-18T07:35:55.311Z,50.50
2019-05-18T07:38:24.020Z,50.80
2019-05-18T07:40:52.699Z,50.10
2019-05-18T07:43:21.416Z,50.20
2019-05-18T07:45:51.484Z,50.20
2019-05-18T07:48:20.161Z,50.20
2019-05-18T07:50:48.829Z,50.10
2019-05-18T07:53:17.511Z,49.90
2019-05-18T07:55:46.276Z,49.80
2019-05-18T07:58:14.976Z,49.60
2019-05-18T08:00:43.629Z,49.30
2019-05-18T08:03:12.311Z,49.10
2019-05-18T08:05:41.914Z,49.20
2019-05-18T08:08:10.619Z,49.40
2019-05-18T08:10:39.417Z,48.80
2019-05-18T08:13:08.362Z,49.00
2019-05-18T08:15:37.728Z,49.40
2019-05-18T08:18:06.453Z,49.20
2019-05-18T08:20:35.240Z,49.50
2019-05-18T08:23:04.020Z,49.10
2019-05-18T08:25:32.832Z,49.40
2019-05-18T08:28:01.501Z,49.50
2019-05-18T08:30:30.193Z,49.60
2019-05-18T08:32:58.857Z,49.30
2019-05-18T08:35:27.671Z,49.40
2019-05-18T08:37:56.343Z,49.30
2019-05-18T08:40:25.147Z,48.90
2019-05-18T08:42:53.825Z,48.60
2019-05-18T08:45:22.511Z,48.40
2019-05-18T08:47:51.334Z,48.10
2019-05-18T08:50:20.112Z,47.90
2019-05-18T08:52:48.970Z,47.90
2019-05-18T08:55:17.672Z,47.70
2019-05-18T08:57:46.371Z,47.50
2019-05-18T09:00:16.168Z,47.50
2019-05-18T09:02:44.837Z,46.70
2019-05-18T09:05:13.972Z,46.60
2019-05-18T09:07:42.635Z,46.70
2019-05-18T09:10:12.410Z,46.60
2019-05-18T09:12:41.154Z,46.70
2019-05-18T09:15:10.588Z,46.30
2019-05-18T09:17:39.261Z,46.20
2019-05-18T09:20:08.455Z,45.80
2019-05-18T09:22:37.137Z,45.50
2019-05-18T09:25:07.246Z,44.90
2019-05-18T09:27:35.911Z,44.40
2019-05-18T09:30:06.687Z,44.00
2019-05-18T09:32:35.480Z,43.50
2019-05-18T09:35:06.263Z,43.90
2019-05-18T09:37:34.980Z,44.10
2019-05-18T09:40:05.630Z,44.30
2019-05-18T09:42:34.399Z,44.00
2019-05-18T09:45:03.871Z,43.90
2019-05-18T09:47:32.559Z,43.60
2019-05-18T09:50:01.355Z,43.50
2019-05-18T09:52:44.352Z,43.50
2019-05-18T09:55:00.460Z,43.30
2019-05-18T09:57:29.475Z,43.20
2019-05-18T09:59:58.132Z,43.00
2019-05-18T10:02:26.835Z,42.60
2019-05-18T10:04:55.516Z,43.00
2019-05-18T10:07:24.227Z,42.80
2019-05-18T10:09:52.891Z,42.80
2019-05-18T10:12:24.574Z,42.90
2019-05-18T10:14:52.009Z,42.90
2019-05-18T10:17:20.691Z,43.00
2019-05-18T10:19:49.384Z,42.80
2019-05-18T10:22:18.095Z,42.60
2019-05-18T10:24:46.857Z,42.50
2019-05-18T10:27:15.531Z,42.60
2019-05-18T10:29:46.640Z,42.50
2019-05-18T10:32:14.831Z,42.20
2019-05-18T10:34:43.542Z,42.00
2019-05-18T10:37:12.269Z,41.90
2019-05-18T10:39:41.099Z,42.10
2019-05-18T10:42:09.817Z,41.90
2019-05-18T10:44:38.559Z,42.10
2019-05-18T10:47:07.261Z,41.70
2019-05-18T10:49:35.960Z,41.50
2019-05-18T10:52:04.728Z,41.60
2019-05-18T10:54:33.762Z,41.40
2019-05-18T10:57:02.511Z,41.50
2019-05-18T10:59:31.259Z,41.10
2019-05-18T11:01:59.931Z,41.10
2019-05-18T11:04:28.957Z,40.70
2019-05-18T11:06:57.629Z,40.50
2019-05-18T11:09:26.370Z,40.30
2019-05-18T11:11:55.105Z,40.10
2019-05-18T11:14:23.815Z,39.90
2019-05-18T11:16:52.607Z,39.90
2019-05-18T11:19:21.373Z,39.90
2019-05-18T11:21:50.061Z,39.20
2019-05-18T11:24:18.758Z,39.20
2019-05-18T11:26:47.559Z,39.30
2019-05-18T11:29:16.251Z,39.60
2019-05-18T11:31:45.120Z,39.60
2019-05-18T11:34:13.916Z,39.70
2019-05-18T11:36:42.842Z,38.60
2019-05-18T11:39:11.519Z,38.30
2019-05-18T11:41:40.231Z,37.70
2019-05-18T11:44:10.817Z,37.60
2019-05-18T11:46:39.322Z,37.70
2019-05-18T11:49:08.045Z,37.60
2019-05-18T11:51:36.731Z,37.60
2019-05-18T11:54:05.466Z,37.70
2019-05-18T11:56:34.233Z,37.20
2019-05-18T11:59:02.900Z,36.90
2019-05-18T12:01:31.611Z,36.50
2019-05-18T12:04:00.293Z,36.20
2019-05-18T12:06:29.178Z,36.20
2019-05-18T12:08:58.683Z,36.40
2019-05-18T12:11:27.609Z,36.00
2019-05-18T12:13:56.272Z,35.80
2019-05-18T12:16:24.973Z,35.80
2019-05-18T12:18:53.685Z,36.00
2019-05-18T12:21:26.836Z,35.90
2019-05-18T12:23:55.586Z,35.40
2019-05-18T12:26:24.251Z,35.50
2019-05-18T12:28:52.962Z,35.20
2019-05-18T12:31:21.642Z,35.40
2019-05-18T12:33:50.334Z,35.70
2019-05-18T12:36:19.027Z,35.30
2019-05-18T12:38:47.736Z,34.80
2019-05-18T12:41:18.084Z,35.10
2019-05-18T12:43:46.918Z,35.00
2019-05-18T12:46:15.681Z,35.60
2019-05-18T12:48:44.346Z,34.50
2019-05-18T12:51:13.048Z,34.70
2019-05-18T12:53:41.751Z,34.90
2019-05-18T12:56:10.460Z,34.80
2019-05-18T12:58:39.162Z,34.80
2019-05-18T13:01:07.918Z,34.70
2019-05-18T13:03:36.713Z,34.50
2019-05-18T13:06:06.363Z,34.50
2019-05-18T13:08:35.252Z,34.40
2019-05-18T13:11:03.925Z,34.40
2019-05-18T13:13:32.616Z,34.30
2019-05-18T13:16:01.557Z,34.40
2019-05-18T13:18:30.335Z,34.60
2019-05-18T13:20:59.030Z,34.30
2019-05-18T13:23:27.712Z,34.10
2019-05-18T13:25:56.417Z,34.30
2019-05-18T13:28:25.131Z,34.10
2019-05-18T13:30:53.811Z,33.80
2019-05-18T13:33:22.493Z,33.60
2019-05-18T13:35:51.482Z,33.10
2019-05-18T13:38:20.199Z,32.90
2019-05-18T13:40:48.894Z,32.90
2019-05-18T13:43:17.576Z,33.30
2019-05-18T13:45:46.478Z,33.20
2019-05-18T13:48:15.156Z,33.10
2019-05-18T13:50:44.861Z,33.40
2019-05-18T13:53:13.836Z,33.80
2019-05-18T13:55:42.722Z,34.00
2019-05-18T13:58:11.479Z,34.30
2019-05-18T14:00:40.182Z,33.90
2019-05-18T14:03:09.243Z,33.70
2019-05-18T14:05:37.946Z,34.30
2019-05-18T14:08:06.715Z,34.00
2019-05-18T14:10:35.582Z,34.20
2019-05-18T14:13:04.301Z,34.40
2019-05-18T14:15:32.987Z,34.90
2019-05-18T14:18:01.662Z,35.40
2019-05-18T14:20:30.379Z,36.00
2019-05-18T14:22:59.691Z,35.90
2019-05-18T14:25:28.374Z,36.10
2019-05-18T14:27:57.086Z,36.30
2019-05-18T14:30:25.756Z,36.50
2019-05-18T14:32:54.453Z,36.40
2019-05-18T14:35:23.150Z,37.00
2019-05-18T14:37:52.077Z,36.40
2019-05-18T14:40:20.817Z,35.90
2019-05-18T14:42:49.558Z,35.80
2019-05-18T14:45:18.343Z,36.20
2019-05-18T14:47:47.039Z,36.00
2019-05-18T14:50:16.823Z,36.40
2019-05-18T14:52:45.565Z,36.80
2019-05-18T14:55:14.337Z,36.90
2019-05-18T14:57:43.115Z,36.90
2019-05-18T15:00:12.388Z,36.60
2019-05-18T15:02:41.346Z,36.80
2019-05-18T15:05:11.231Z,35.70
2019-05-18T15:07:40.232Z,35.40
2019-05-18T15:10:09.917Z,35.40
2019-05-18T15:12:38.677Z,34.90
2019-05-18T15:15:09.428Z,34.90
2019-05-18T15:17:38.190Z,35.10
2019-05-18T15:20:09.104Z,35.10
2019-05-18T15:22:37.824Z,35.30
2019-05-18T15:25:25.802Z,35.40
2019-05-18T15:27:54.484Z,35.90
2019-05-18T15:30:23.495Z,36.30
2019-05-18T15:32:52.494Z,36.30
2019-05-18T15:35:21.188Z,36.30
2019-05-18T15:37:50.113Z,36.40
2019-05-18T15:40:19.685Z,36.40
2019-05-18T15:42:48.361Z,36.40
2019-05-18T15:45:17.483Z,36.40
2019-05-18T15:47:46.485Z,36.20
2019-05-18T15:50:15.687Z,36.00
2019-05-18T15:52:44.366Z,36.70
2019-05-18T15:55:13.640Z,36.80
2019-05-18T15:57:42.318Z,36.50
2019-05-18T16:00:11.819Z,36.40
2019-05-18T16:02:40.818Z,36.70
2019-05-18T16:05:09.920Z,36.30
2019-05-18T16:07:38.588Z,36.50
2019-05-18T16:10:08.203Z,36.40
2019-05-18T16:12:36.868Z,36.30
2019-05-18T16:15:09.242Z,36.30
2019-05-18T16:17:39.801Z,36.30
2019-05-18T16:20:08.925Z,36.40
2019-05-18T16:22:37.800Z,37.10
2019-05-18T16:25:07.724Z,37.00
2019-05-18T16:27:36.494Z,37.00
2019-05-18T16:30:09.428Z,37.50
2019-05-18T16:32:38.153Z,37.40
2019-05-18T16:35:08.920Z,37.20
2019-05-18T16:37:37.682Z,37.30
2019-05-18T16:40:07.523Z,37.40
2019-05-18T16:42:36.206Z,37.40
2019-05-18T16:45:07.482Z,37.20
2019-05-18T16:47:36.371Z,37.00
2019-05-18T16:50:06.654Z,36.60
2019-05-18T16:52:35.330Z,36.80
2019-05-18T16:55:05.412Z,36.70
2019-05-18T16:57:35.162Z,36.80
2019-05-18T17:00:08.882Z,36.80
2019-05-18T17:02:37.532Z,36.70
2019-05-18T17:05:08.115Z,37.40
2019-05-18T17:07:36.803Z,37.50
2019-05-18T17:10:06.979Z,36.50
2019-05-18T17:12:35.646Z,36.30
2019-05-18T17:15:07.286Z,35.40
2019-05-18T17:17:36.032Z,35.80
2019-05-18T17:20:08.702Z,35.70
2019-05-18T17:22:37.376Z,35.80
2019-05-18T17:25:06.748Z,35.90
2019-05-18T17:27:35.734Z,36.00
2019-05-18T17:30:08.964Z,36.80
2019-05-18T17:32:37.660Z,37.10
2019-05-18T17:35:07.315Z,37.30
2019-05-18T17:37:35.992Z,37.20
2019-05-18T17:40:05.997Z,37.50
2019-05-18T17:42:34.860Z,37.70
2019-05-18T17:45:04.977Z,37.60
2019-05-18T17:47:33.793Z,37.50
2019-05-18T17:50:02.512Z,37.50
2019-05-18T17:52:31.176Z,37.40
2019-05-18T17:55:00.078Z,37.60
2019-05-18T17:57:28.799Z,37.80
2019-05-18T17:59:57.484Z,37.70
2019-05-18T18:02:26.207Z,37.90
2019-05-18T18:04:54.944Z,38.10
2019-05-18T18:07:23.675Z,38.30
2019-05-18T18:09:52.365Z,38.00
2019-05-18T18:12:21.227Z,38.10
2019-05-18T18:14:49.988Z,38.30
2019-05-18T18:17:18.682Z,38.40
2019-05-18T18:19:47.400Z,38.30
2019-05-18T18:22:16.142Z,38.40
2019-05-18T18:24:44.832Z,38.50
2019-05-18T18:27:24.928Z,38.60
2019-05-18T18:29:43.990Z,38.90
2019-05-18T18:32:12.675Z,38.80
2019-05-18T18:34:41.557Z,38.80
2019-05-18T18:37:10.234Z,38.80
2019-05-18T18:39:38.939Z,38.50
2019-05-18T18:42:07.617Z,38.40
2019-05-18T18:44:36.296Z,37.90
2019-05-18T18:47:05.029Z,37.60
2019-05-18T18:49:33.872Z,37.50
2019-05-18T18:52:02.642Z,37.50
2019-05-18T18:54:31.343Z,37.20
2019-05-18T18:57:00.223Z,37.10
2019-05-18T18:59:28.964Z,37.10
2019-05-18T19:01:57.688Z,37.20
2019-05-18T19:04:26.380Z,37.50
2019-05-18T19:06:55.257Z,37.80
2019-05-18T19:09:24.070Z,38.50
2019-05-18T19:11:52.731Z,39.10
2019-05-18T19:14:21.468Z,39.60
2019-05-18T19:16:50.190Z,39.50
2019-05-18T19:19:18.867Z,39.50
2019-05-18T19:21:47.646Z,39.60
2019-05-18T19:24:16.365Z,39.50
2019-05-18T19:26:45.033Z,39.40
2019-05-18T19:29:13.774Z,40.00
2019-05-18T19:31:42.433Z,40.40
2019-05-18T19:34:11.343Z,40.70
2019-05-18T19:36:40.018Z,41.00
2019-05-18T19:39:08.734Z,41.30
2019-05-18T19:41:37.659Z,41.40
2019-05-18T19:44:06.335Z,41.70
2019-05-18T19:46:35.067Z,41.80
2019-05-18T19:49:03.763Z,41.90
2019-05-18T19:51:32.527Z,41.90
2019-05-18T19:54:01.363Z,41.90
2019-05-18T19:56:38.406Z,42.00
2019-05-18T19:59:01.077Z,42.20
2019-05-18T20:01:29.869Z,42.40
2019-05-18T20:03:58.560Z,42.70
2019-05-18T20:06:27.227Z,42.70
2019-05-18T20:08:56.076Z,42.70
2019-05-18T20:11:24.763Z,42.70
2019-05-18T20:13:53.462Z,42.70
2019-05-18T20:16:22.152Z,42.60
2019-05-18T20:18:50.858Z,42.60
2019-05-18T20:21:19.617Z,42.50
2019-05-18T20:23:48.317Z,42.40
2019-05-18T20:26:17.191Z,42.30
2019-05-18T20:28:46.277Z,42.40
2019-05-18T20:31:16.273Z,42.50
2019-05-18T20:33:45.031Z,42.50
2019-05-18T20:36:13.695Z,42.40
2019-05-18T20:38:42.474Z,42.40
2019-05-18T20:41:11.218Z,42.30
2019-05-18T20:43:39.965Z,42.30
2019-05-18T20:46:08.680Z,42.20
2019-05-18T20:48:37.355Z,42.30
2019-05-18T20:51:06.083Z,42.40
2019-05-18T20:53:35.046Z,42.50
2019-05-18T20:56:03.832Z,42.70
2019-05-18T20:58:40.022Z,42.80
2019-05-18T21:01:02.918Z,42.90
2019-05-18T21:03:31.628Z,43.00
2019-05-18T21:06:00.307Z,43.10
2019-05-18T21:08:29.036Z,43.30
2019-05-18T21:10:57.959Z,43.40
2019-05-18T21:13:26.678Z,43.70
2019-05-18T21:15:55.414Z,43.80
2019-05-18T21:18:24.128Z,43.70
2019-05-18T21:20:52.912Z,43.70
2019-05-18T21:23:21.645Z,43.70
2019-05-18T21:25:50.355Z,43.70
2019-05-18T21:28:19.116Z,43.60
2019-05-18T21:30:47.884Z,43.90
2019-05-18T21:33:18.152Z,44.00
2019-05-18T21:35:46.900Z,44.00
2019-05-18T21:38:15.699Z,44.10
2019-05-18T21:40:44.383Z,44.00
2019-05-18T21:43:13.205Z,44.20
2019-05-18T21:45:42.167Z,44.10
2019-05-18T21:48:10.866Z,44.10
2019-05-18T21:50:39.638Z,44.20
2019-05-18T21:53:08.331Z,44.30
2019-05-18T21:55:37.048Z,44.40
2019-05-18T21:58:05.718Z,44.40
2019-05-18T22:00:34.632Z,44.50
2019-05-18T22:03:03.298Z,44.40
2019-05-18T22:05:32.011Z,44.50
2019-05-18T22:08:00.679Z,44.40
2019-05-18T22:10:29.387Z,44.30
2019-05-18T22:12:58.078Z,44.40
2019-05-18T22:15:28.054Z,44.50
2019-05-18T22:18:02.850Z,44.50
2019-05-18T22:20:33.180Z,44.40
2019-05-18T22:23:01.958Z,44.40
2019-05-18T22:25:30.879Z,44.40
2019-05-18T22:27:59.592Z,44.50
2019-05-18T22:30:28.497Z,44.60
2019-05-18T22:32:57.196Z,44.70
2019-05-18T22:35:26.099Z,44.70
2019-05-18T22:37:54.969Z,44.60
2019-05-18T22:40:23.829Z,44.70
2019-05-18T22:42:52.495Z,44.80
2019-05-18T22:45:21.355Z,44.90
2019-05-18T22:47:50.139Z,45.70
2019-05-18T22:50:19.456Z,45.10
2019-05-18T22:52:48.426Z,45.20
2019-05-18T22:55:17.720Z,45.20
2019-05-18T22:57:46.395Z,45.30
2019-05-18T23:00:15.578Z,45.50
2019-05-18T23:02:44.469Z,45.40
2019-05-18T23:05:13.377Z,45.50
2019-05-18T23:07:42.344Z,45.50
2019-05-18T23:10:11.825Z,45.60
2019-05-18T23:12:40.531Z,45.60
2019-05-18T23:15:09.523Z,45.60
2019-05-18T23:17:38.215Z,45.70
2019-05-18T23:20:07.603Z,45.80
2019-05-18T23:22:36.308Z,45.80
2019-05-18T23:25:09.717Z,46.00
2019-05-18T23:27:38.384Z,46.00
2019-05-18T23:30:10.975Z,46.10
2019-05-18T23:32:39.674Z,46.40
2019-05-18T23:35:08.676Z,46.40
2019-05-18T23:37:37.349Z,46.50
2019-05-18T23:40:07.001Z,46.50
2019-05-18T23:42:35.765Z,46.60
2019-05-18T23:45:06.450Z,46.60
2019-05-18T23:47:35.335Z,46.60
2019-05-18T23:50:05.536Z,46.40
2019-05-18T23:52:34.213Z,46.60
2019-05-18T23:55:02.942Z,46.50
2019-05-18T23:57:31.692Z,46.40
